Main page
METAR-TAF:

METAR-TAF

Airports :

Allama Iqbal International Airport

Lahore, Pakistan

latitude: 31-31N, longitude: 074-24E, elevation: 216 m

Current weather observation

The report was made 23 minutes ago, at 03:55 UTC
Calm wind
Temperature 20°C
Humidity 60%
Pressure 1015 hPa
Visibility: 3000 m
smoke

METAR: OPLA 010355Z 00000KT 3000 FU NSC 20/12 Q1015 BECMG 4000 RMK QFE987 RMK A29.98

Time: 09:18 (04:18 UTC)

Forecast

The report was made 3 hours and 33 minutes ago, at 00:45 UTC
Forecast valid from 01 at 03 UTC to 01 at 12 UTC
Wind 5 kt from the Northwest
Visibility: 4000 m
haze
Temporary
from 01 at 03 UTC to 01 at 05 UTC
Wind kt from the North
Visibility: 2000 m
smoke

TAF: OPLA 010045Z 0103/0112 32005KT 4000 HZ NSC TX29/0110Z TEMPO 0103/0105 00000KT 2000 FU

Weather observations and forecasts of more than 4000 airports (METAR and TAF reports).

The available stations are represented by yellow and red dots on the map.

Hover mouse over dot to see the name of the station.

Then click to see weather observations and forecasts.

To change the map : click on the green buttons with a black cross to zoom in, on the green button with a dash to zoom out, or on the green arrows for adjacent maps.


METAR-TAF: